createdAt,value
2022-09-01T00:01:55.297Z,12.50
2022-09-01T00:04:54.215Z,12.50
2022-09-01T00:07:23.745Z,12.50
2022-09-01T00:09:52.773Z,12.40
2022-09-01T00:12:22.774Z,12.40
2022-09-01T00:14:51.359Z,12.40
2022-09-01T00:17:19.451Z,12.40
2022-09-01T00:19:47.554Z,12.50
2022-09-01T00:22:15.519Z,12.50
2022-09-01T00:24:47.403Z,12.40
2022-09-01T00:27:15.609Z,12.50
2022-09-01T00:29:44.130Z,12.40
2022-09-01T00:32:12.280Z,12.50
2022-09-01T00:34:40.617Z,12.40
2022-09-01T00:37:08.822Z,12.40
2022-09-01T00:39:38.003Z,12.40
2022-09-01T00:42:07.462Z,12.40
2022-09-01T00:44:36.668Z,12.40
2022-09-01T00:47:08.560Z,12.30
2022-09-01T00:49:40.074Z,12.20
2022-09-01T00:52:09.488Z,12.10
2022-09-01T00:54:40.187Z,12.00
2022-09-01T00:57:10.379Z,12.00
2022-09-01T00:59:40.083Z,11.90
2022-09-01T01:02:08.315Z,11.90
2022-09-01T01:04:36.640Z,11.90
2022-09-01T01:07:06.494Z,12.00
2022-09-01T01:09:37.267Z,12.20
2022-09-01T01:12:06.480Z,12.20
2022-09-01T01:14:37.060Z,12.40
2022-09-01T01:17:05.416Z,12.30
2022-09-01T01:19:57.142Z,12.40
2022-09-01T01:22:46.110Z,12.40
2022-09-01T01:25:16.763Z,12.50
2022-09-01T01:27:46.828Z,12.40
2022-09-01T01:30:17.072Z,12.30
2022-09-01T01:32:47.896Z,12.30
2022-09-01T01:35:16.902Z,12.20
2022-09-01T01:37:45.975Z,12.20
2022-09-01T01:40:16.980Z,12.30
2022-09-01T01:42:46.089Z,12.40
2022-09-01T01:45:17.314Z,12.40
2022-09-01T01:47:47.559Z,12.30
2022-09-01T01:50:15.836Z,12.30
2022-09-01T01:52:45.463Z,12.20
2022-09-01T01:55:22.184Z,12.30
2022-09-01T01:57:50.450Z,12.30
2022-09-01T02:00:20.875Z,12.30
2022-09-01T02:02:58.356Z,12.20
2022-09-01T02:05:27.241Z,12.30
2022-09-01T02:07:57.087Z,12.20
2022-09-01T02:10:28.076Z,12.20
2022-09-01T02:12:57.944Z,12.20
2022-09-01T02:15:27.089Z,12.20
2022-09-01T02:18:00.819Z,12.20
2022-09-01T02:20:33.202Z,12.20
2022-09-01T02:23:09.550Z,12.20
2022-09-01T02:25:59.053Z,12.10
2022-09-01T02:28:32.406Z,12.20
2022-09-01T02:31:02.753Z,12.30
2022-09-01T02:33:31.165Z,12.20
2022-09-01T02:35:59.961Z,12.30
2022-09-01T02:38:33.173Z,12.40
2022-09-01T02:41:03.917Z,12.30
2022-09-01T02:43:32.211Z,12.30
2022-09-01T02:46:01.390Z,12.30
2022-09-01T02:48:35.910Z,12.30
2022-09-01T02:51:04.921Z,12.40
2022-09-01T02:53:35.634Z,12.30
2022-09-01T02:56:09.665Z,12.40
2022-09-01T02:58:46.262Z,12.40
2022-09-01T03:01:16.166Z,12.50
2022-09-01T03:03:44.459Z,12.40
2022-09-01T03:06:12.997Z,12.30
2022-09-01T03:08:41.091Z,11.90
2022-09-01T03:11:13.154Z,11.60
2022-09-01T03:13:42.437Z,11.40
2022-09-01T03:16:11.576Z,11.30
2022-09-01T03:18:40.310Z,11.10
2022-09-01T03:21:09.671Z,11.00
2022-09-01T03:23:38.123Z,11.00
2022-09-01T03:26:06.259Z,11.00
2022-09-01T03:28:37.905Z,11.10
2022-09-01T03:31:05.932Z,11.10
2022-09-01T03:33:34.497Z,11.00
2022-09-01T03:36:02.482Z,11.00
2022-09-01T03:38:32.203Z,11.00
2022-09-01T03:41:02.190Z,11.00
2022-09-01T03:43:36.002Z,11.00
2022-09-01T03:46:06.756Z,11.00
2022-09-01T03:48:35.026Z,10.90
2022-09-01T03:51:03.788Z,11.20
2022-09-01T03:53:33.801Z,11.20
2022-09-01T03:56:04.248Z,11.10
2022-09-01T03:58:32.404Z,11.10
2022-09-01T04:01:03.046Z,11.10
2022-09-01T04:03:37.442Z,11.10
2022-09-01T04:06:09.424Z,11.00
2022-09-01T04:08:37.902Z,11.00
2022-09-01T04:11:11.410Z,11.10
2022-09-01T04:13:40.247Z,11.10
2022-09-01T04:16:10.714Z,11.10
2022-09-01T04:18:40.260Z,11.10
2022-09-01T04:21:10.622Z,11.10
2022-09-01T04:23:38.839Z,11.00
2022-09-01T04:26:10.142Z,11.10
2022-09-01T04:28:39.284Z,11.20
2022-09-01T04:31:09.294Z,11.10
2022-09-01T04:33:38.429Z,11.10
2022-09-01T04:36:10.438Z,11.30
2022-09-01T04:38:38.742Z,11.30
2022-09-01T04:41:07.645Z,11.20
2022-09-01T04:43:36.291Z,11.30
2022-09-01T04:46:04.446Z,11.40
2022-09-01T04:48:32.455Z,11.40
2022-09-01T04:51:01.943Z,11.40
2022-09-01T04:53:32.922Z,11.50
2022-09-01T04:56:04.637Z,11.60
2022-09-01T04:58:32.671Z,11.70
2022-09-01T05:01:06.479Z,11.80
2022-09-01T05:03:35.315Z,11.80
2022-09-01T05:06:04.060Z,11.90
2022-09-01T05:08:35.486Z,11.90
2022-09-01T05:11:07.843Z,11.80
2022-09-01T05:13:40.431Z,11.90
2022-09-01T05:16:15.393Z,11.70
2022-09-01T05:18:45.676Z,11.70
2022-09-01T05:21:14.974Z,11.70
2022-09-01T05:23:44.894Z,11.70
2022-09-01T05:26:17.238Z,11.60
2022-09-01T05:28:45.781Z,11.40
2022-09-01T05:31:13.899Z,11.10
2022-09-01T05:33:49.121Z,10.70
2022-09-01T05:36:18.006Z,10.70
2022-09-01T05:38:48.088Z,10.70
2022-09-01T05:41:17.098Z,10.80
2022-09-01T05:44:00.098Z,10.80
2022-09-01T05:46:30.253Z,10.90
2022-09-01T05:48:58.502Z,11.00
2022-09-01T05:51:43.853Z,11.10
2022-09-01T05:54:14.615Z,11.10
2022-09-01T05:56:46.693Z,11.20
2022-09-01T05:59:24.721Z,11.30
2022-09-01T06:01:54.337Z,11.30
2022-09-01T06:04:23.118Z,11.30
2022-09-01T06:07:08.515Z,11.30
2022-09-01T06:09:40.634Z,11.40
2022-09-01T06:12:09.345Z,11.40
2022-09-01T06:14:37.341Z,11.40
2022-09-01T06:17:06.854Z,11.50
2022-09-01T06:19:37.439Z,11.60
2022-09-01T06:22:05.877Z,11.70
2022-09-01T06:24:33.942Z,11.80
2022-09-01T06:27:10.107Z,11.90
2022-09-01T06:29:39.958Z,11.90
2022-09-01T06:32:09.895Z,12.00
2022-09-01T06:34:38.317Z,12.10
2022-09-01T06:37:07.285Z,12.30
2022-09-01T06:39:35.529Z,12.80
2022-09-01T06:42:06.318Z,13.00
2022-09-01T06:44:40.667Z,13.30
2022-09-01T06:47:09.229Z,13.60
2022-09-01T06:49:41.650Z,13.60
2022-09-01T06:52:11.961Z,13.50
2022-09-01T06:54:44.048Z,13.60
2022-09-01T07:00:07.908Z,13.50
2022-09-01T07:02:39.906Z,13.40
2022-09-01T07:05:09.316Z,13.30
2022-09-01T07:08:07.437Z,13.20
2022-09-01T07:11:19.576Z,13.00
2022-09-01T07:13:25.879Z,12.90
2022-09-01T07:18:57.993Z,12.70
2022-09-01T07:22:06.823Z,12.60
2022-09-01T07:24:17.166Z,12.50
2022-09-01T07:26:50.835Z,12.50
2022-09-01T07:29:22.856Z,12.40
2022-09-01T07:32:44.126Z,12.40
2022-09-01T07:34:40.835Z,12.50
2022-09-01T07:38:48.062Z,12.60
2022-09-01T07:45:47.217Z,12.90
2022-09-01T07:51:35.756Z,13.70
2022-09-01T07:53:55.269Z,13.80
2022-09-01T07:56:24.598Z,13.40
2022-09-01T07:58:53.227Z,13.20
2022-09-01T08:01:23.616Z,13.40
2022-09-01T08:03:53.673Z,13.70
2022-09-01T08:06:22.598Z,13.80
2022-09-01T08:08:56.762Z,13.90
2022-09-01T08:11:51.483Z,13.80
2022-09-01T08:14:14.165Z,13.40
2022-09-01T08:16:51.897Z,13.30
2022-09-01T08:19:22.240Z,13.40
2022-09-01T08:21:50.271Z,13.40
2022-09-01T08:24:19.292Z,13.60
2022-09-01T08:26:48.484Z,14.00
2022-09-01T08:29:16.455Z,14.20
2022-09-01T08:31:47.546Z,14.10
2022-09-01T08:34:17.217Z,14.30
2022-09-01T08:36:45.483Z,14.50
2022-09-01T08:39:13.653Z,14.30
2022-09-01T08:41:46.917Z,14.20
2022-09-01T08:44:21.525Z,14.00
2022-09-01T08:46:56.419Z,14.20
2022-09-01T08:49:26.866Z,14.40
2022-09-01T08:51:59.027Z,14.70
2022-09-01T08:54:33.971Z,14.70
2022-09-01T08:57:06.835Z,14.80
2022-09-01T08:59:36.036Z,14.70
2022-09-01T09:02:16.489Z,14.70
2022-09-01T09:04:51.482Z,14.60
2022-09-01T09:07:27.792Z,14.40
2022-09-01T09:09:59.587Z,14.50
2022-09-01T09:12:48.908Z,14.80
2022-09-01T09:15:22.220Z,14.80
2022-09-01T09:18:00.336Z,14.80
2022-09-01T09:20:30.967Z,15.00
2022-09-01T09:23:03.968Z,15.50
2022-09-01T09:25:32.390Z,15.50
2022-09-01T09:28:03.373Z,16.10
2022-09-01T09:30:33.213Z,16.10
2022-09-01T09:35:56.532Z,15.50
2022-09-01T09:38:29.447Z,15.50
2022-09-01T09:41:25.692Z,15.60
2022-09-01T09:43:59.014Z,15.60
2022-09-01T09:46:28.720Z,15.60
2022-09-01T09:49:12.108Z,15.60
2022-09-01T09:51:40.756Z,16.00
2022-09-01T09:54:13.382Z,15.90
2022-09-01T09:56:44.705Z,15.80
2022-09-01T09:59:53.720Z,15.70
2022-09-01T10:02:23.189Z,15.60
2022-09-01T10:04:57.708Z,15.60
2022-09-01T10:07:29.371Z,15.70
2022-09-01T10:10:00.634Z,15.50
2022-09-01T10:12:30.155Z,15.80
2022-09-01T10:15:04.684Z,15.80
2022-09-01T10:17:43.628Z,15.10
2022-09-01T10:20:17.093Z,15.20
2022-09-01T10:22:48.379Z,14.10
2022-09-01T10:25:18.809Z,14.00
2022-09-01T10:27:48.998Z,13.80
2022-09-01T10:30:24.272Z,14.10
2022-09-01T10:32:56.060Z,14.60
2022-09-01T10:35:28.509Z,15.10
2022-09-01T10:37:59.163Z,15.80
2022-09-01T10:40:50.086Z,15.90
2022-09-01T10:43:41.705Z,16.30
2022-09-01T10:46:16.640Z,16.30
2022-09-01T10:48:54.972Z,16.10
2022-09-01T10:51:56.736Z,15.30
2022-09-01T10:54:55.559Z,15.20
2022-09-01T10:57:42.392Z,15.10
2022-09-01T11:01:10.522Z,15.10
2022-09-01T11:03:51.772Z,14.80
2022-09-01T11:06:40.522Z,15.40
2022-09-01T11:09:19.218Z,15.90
2022-09-01T11:11:50.566Z,15.80
2022-09-01T11:14:20.388Z,16.00
2022-09-01T11:17:05.157Z,15.30
2022-09-01T11:19:35.926Z,14.30
2022-09-01T11:22:06.478Z,14.30
2022-09-01T11:25:12.617Z,14.80
2022-09-01T11:28:01.145Z,14.90
2022-09-01T11:30:38.157Z,14.80
2022-09-01T11:33:12.826Z,14.60
2022-09-01T11:35:41.250Z,15.10
2022-09-01T11:38:11.492Z,15.40
2022-09-01T11:40:40.938Z,15.40
2022-09-01T11:43:12.855Z,15.20
2022-09-01T11:45:46.310Z,15.40
2022-09-01T11:48:17.966Z,15.30
2022-09-01T11:50:46.209Z,15.40
2022-09-01T11:53:15.575Z,15.30
2022-09-01T11:55:46.049Z,15.40
2022-09-01T11:58:17.982Z,14.40
2022-09-01T12:00:46.198Z,14.00
2022-09-01T12:03:21.509Z,14.10
2022-09-01T12:05:54.666Z,14.10
2022-09-01T12:08:24.285Z,13.90
2022-09-01T12:11:03.902Z,13.80
2022-09-01T12:13:32.065Z,13.70
2022-09-01T12:16:17.505Z,13.90
2022-09-01T12:18:54.361Z,14.40
2022-09-01T12:21:23.646Z,14.60
2022-09-01T12:23:51.901Z,14.70
2022-09-01T12:26:24.012Z,15.10
2022-09-01T12:28:53.389Z,15.00
2022-09-01T12:31:23.860Z,15.20
2022-09-01T12:33:52.758Z,15.10
2022-09-01T12:36:21.822Z,14.90
2022-09-01T12:38:50.201Z,15.30
2022-09-01T12:41:35.289Z,15.20
2022-09-01T12:44:21.767Z,15.10
2022-09-01T12:46:49.996Z,15.10
2022-09-01T12:49:18.605Z,15.40
2022-09-01T12:51:47.894Z,15.50
2022-09-01T12:54:16.550Z,15.60
2022-09-01T12:56:51.214Z,16.00
2022-09-01T12:59:36.331Z,16.30
2022-09-01T13:02:26.745Z,15.40
2022-09-01T13:04:55.043Z,14.70
2022-09-01T13:07:23.119Z,14.10
2022-09-01T13:09:52.475Z,14.30
2022-09-01T13:12:22.902Z,14.60
2022-09-01T13:14:53.193Z,15.00
2022-09-01T13:17:21.876Z,15.20
2022-09-01T13:19:49.878Z,15.10
2022-09-01T13:22:20.493Z,15.10
2022-09-01T13:24:48.786Z,15.20
2022-09-01T13:27:21.208Z,14.90
2022-09-01T13:29:52.460Z,14.20
2022-09-01T13:32:24.457Z,14.80
2022-09-01T13:34:53.959Z,15.00
2022-09-01T13:37:30.239Z,14.80
2022-09-01T13:39:58.382Z,14.90
2022-09-01T13:42:28.625Z,14.60
2022-09-01T13:44:58.775Z,14.40
2022-09-01T13:47:30.270Z,14.60
2022-09-01T13:50:09.361Z,14.60
2022-09-01T13:52:39.480Z,14.50
2022-09-01T13:55:08.862Z,14.50
2022-09-01T13:57:37.218Z,14.60
2022-09-01T14:00:10.952Z,14.50
2022-09-01T14:02:40.087Z,14.50
2022-09-01T14:05:08.924Z,14.40
2022-09-01T14:07:37.595Z,14.50
2022-09-01T14:10:07.707Z,15.10
2022-09-01T14:12:36.144Z,14.60
2022-09-01T14:15:16.076Z,14.50
2022-09-01T14:17:49.972Z,14.60
2022-09-01T14:20:19.525Z,14.60
2022-09-01T14:22:49.314Z,14.90
2022-09-01T14:25:27.499Z,14.70
2022-09-01T14:27:58.396Z,15.00
2022-09-01T14:30:31.187Z,14.50
2022-09-01T14:33:02.022Z,14.40
2022-09-01T14:35:34.416Z,14.80
2022-09-01T14:38:02.846Z,15.20
2022-09-01T14:40:31.461Z,15.30
2022-09-01T14:43:01.249Z,15.10
2022-09-01T14:45:29.857Z,15.10
2022-09-01T14:48:00.811Z,14.60
2022-09-01T14:50:32.634Z,14.40
2022-09-01T14:53:02.061Z,14.40
2022-09-01T14:55:31.173Z,14.10
2022-09-01T14:58:00.426Z,14.10
2022-09-01T15:00:28.462Z,13.90
2022-09-01T15:02:59.781Z,14.10
2022-09-01T15:05:28.158Z,13.90
2022-09-01T15:07:57.555Z,13.90
2022-09-01T15:10:27.181Z,14.20
2022-09-01T15:12:55.968Z,14.20
2022-09-01T15:15:24.140Z,14.60
2022-09-01T15:17:53.027Z,14.70
2022-09-01T15:20:38.593Z,14.70
2022-09-01T15:23:08.979Z,14.60
2022-09-01T15:25:37.320Z,14.60
2022-09-01T15:28:06.144Z,14.70
2022-09-01T15:30:35.494Z,14.70
2022-09-01T15:33:03.881Z,15.20
2022-09-01T15:35:32.053Z,15.10
2022-09-01T15:38:00.401Z,14.90
2022-09-01T15:40:30.061Z,14.70
2022-09-01T15:43:01.224Z,14.40
2022-09-01T15:45:30.191Z,14.50
2022-09-01T15:48:01.041Z,14.60
2022-09-01T15:50:32.575Z,14.20
2022-09-01T15:53:06.085Z,14.20
2022-09-01T15:55:44.391Z,14.20
2022-09-01T15:58:14.074Z,14.30
2022-09-01T16:00:42.854Z,14.10
2022-09-01T16:03:11.642Z,14.40
2022-09-01T16:05:41.034Z,14.80
2022-09-01T16:08:12.883Z,14.80
2022-09-01T16:10:43.353Z,14.40
2022-09-01T16:13:13.366Z,14.30
2022-09-01T16:15:45.606Z,14.30
2022-09-01T16:18:20.340Z,14.20
2022-09-01T16:20:55.635Z,13.90
2022-09-01T16:23:24.691Z,13.60
2022-09-01T16:26:01.455Z,13.00
2022-09-01T16:28:30.590Z,13.00
2022-09-01T16:31:02.138Z,13.00
2022-09-01T16:33:30.232Z,13.00
2022-09-01T16:36:11.072Z,13.20
2022-09-01T16:38:42.419Z,13.30
2022-09-01T16:41:18.677Z,13.30
2022-09-01T16:43:53.076Z,13.30
2022-09-01T16:46:23.459Z,13.00
2022-09-01T16:48:54.120Z,12.90
2022-09-01T16:51:28.403Z,13.10
2022-09-01T16:54:02.523Z,13.10
2022-09-01T16:56:35.485Z,13.20
2022-09-01T17:01:49.696Z,12.80
2022-09-01T17:04:24.163Z,12.80
2022-09-01T17:06:58.325Z,12.60
2022-09-01T17:09:32.631Z,12.60
2022-09-01T17:12:12.183Z,12.70
2022-09-01T17:14:44.326Z,12.80
2022-09-01T17:17:17.596Z,12.90
2022-09-01T17:19:54.524Z,12.70
2022-09-01T17:22:22.775Z,12.50
2022-09-01T17:25:01.113Z,12.20
2022-09-01T17:27:36.782Z,12.30
2022-09-01T17:30:07.603Z,12.10
2022-09-01T17:32:48.044Z,12.20
2022-09-01T17:35:21.094Z,12.10
2022-09-01T17:37:56.456Z,12.20
2022-09-01T17:40:26.856Z,12.50
2022-09-01T17:43:02.678Z,12.20
2022-09-01T17:45:31.837Z,12.10
2022-09-01T17:48:05.638Z,12.10
2022-09-01T17:50:42.659Z,12.10
2022-09-01T17:53:18.562Z,12.10
2022-09-01T17:55:49.349Z,12.10
2022-09-01T17:58:23.154Z,11.90
2022-09-01T18:00:56.694Z,12.00
2022-09-01T18:03:29.614Z,12.00
2022-09-01T18:06:00.631Z,11.90
2022-09-01T18:08:32.537Z,12.00
2022-09-01T18:11:02.792Z,11.90
2022-09-01T18:13:52.466Z,11.90
2022-09-01T18:16:22.596Z,11.90
2022-09-01T18:18:51.544Z,11.80
2022-09-01T18:21:20.507Z,11.90
2022-09-01T18:23:50.270Z,11.90
2022-09-01T18:26:22.966Z,11.90
2022-09-01T18:28:54.295Z,11.80
2022-09-01T18:31:31.765Z,11.80
2022-09-01T18:34:04.358Z,11.80
2022-09-01T18:36:37.537Z,11.80
2022-09-01T18:39:09.338Z,11.80
2022-09-01T18:41:44.957Z,11.90
2022-09-01T18:44:26.721Z,11.90
2022-09-01T18:46:59.650Z,11.90
2022-09-01T18:49:34.664Z,12.00
2022-09-01T18:52:08.113Z,12.00
2022-09-01T18:54:42.665Z,12.00
2022-09-01T18:57:14.099Z,12.10
2022-09-01T19:00:03.441Z,12.10
2022-09-01T19:02:39.721Z,12.00
2022-09-01T19:05:15.325Z,12.00
2022-09-01T19:07:52.008Z,12.00
2022-09-01T19:10:25.956Z,12.10
2022-09-01T19:13:03.135Z,12.00
2022-09-01T19:15:38.253Z,12.10
2022-09-01T19:18:18.400Z,12.00
2022-09-01T19:20:51.809Z,12.00
2022-09-01T19:23:25.532Z,12.00
2022-09-01T19:26:00.154Z,12.00
2022-09-01T19:28:35.260Z,12.00
2022-09-01T19:31:09.101Z,12.00
2022-09-01T19:33:40.738Z,12.00
2022-09-01T19:36:10.754Z,12.00
2022-09-01T19:38:40.050Z,12.10
2022-09-01T19:41:13.759Z,11.90
2022-09-01T19:43:43.457Z,12.00
2022-09-01T19:46:20.497Z,12.00
2022-09-01T19:48:50.447Z,12.00
2022-09-01T19:51:24.013Z,11.90
2022-09-01T19:53:56.250Z,12.00
2022-09-01T19:56:27.547Z,12.10
2022-09-01T19:58:59.697Z,12.10
2022-09-01T20:01:38.604Z,12.10
2022-09-01T20:04:15.599Z,12.00
2022-09-01T20:06:51.664Z,12.00
2022-09-01T20:09:22.503Z,11.90
2022-09-01T20:11:52.119Z,11.90
2022-09-01T20:14:30.359Z,12.00
2022-09-01T20:17:02.305Z,12.10
2022-09-01T20:19:43.134Z,12.10
2022-09-01T20:22:22.659Z,12.20
2022-09-01T20:24:58.390Z,12.30
2022-09-01T20:27:34.573Z,12.30
2022-09-01T20:30:07.882Z,12.20
2022-09-01T20:32:43.149Z,12.20
2022-09-01T20:35:13.843Z,12.20
2022-09-01T20:37:48.293Z,12.20
2022-09-01T20:40:17.915Z,12.10
2022-09-01T20:42:49.674Z,12.00
2022-09-01T20:45:22.518Z,12.00
2022-09-01T20:47:58.247Z,12.00
2022-09-01T20:50:32.531Z,12.10
2022-09-01T20:53:11.094Z,12.10
2022-09-01T20:55:42.726Z,12.00
2022-09-01T20:58:21.877Z,12.10
2022-09-01T21:00:55.316Z,12.10
2022-09-01T21:03:34.390Z,12.10
2022-09-01T21:06:06.399Z,12.10
2022-09-01T21:08:39.986Z,12.20
2022-09-01T21:11:15.545Z,12.20
2022-09-01T21:13:52.537Z,12.20
2022-09-01T21:16:25.331Z,12.20
2022-09-01T21:18:59.200Z,12.10
2022-09-01T21:21:31.166Z,12.10
2022-09-01T21:23:59.165Z,12.20
2022-09-01T21:26:27.214Z,12.10
2022-09-01T21:28:56.546Z,12.10
2022-09-01T21:31:25.025Z,12.00
2022-09-01T21:33:53.311Z,12.00
2022-09-01T21:36:22.736Z,12.00
2022-09-01T21:38:50.733Z,12.00
2022-09-01T21:41:19.219Z,12.00
2022-09-01T21:43:47.543Z,12.00
2022-09-01T21:46:16.570Z,12.00
2022-09-01T21:48:47.548Z,12.00
2022-09-01T21:51:15.780Z,12.00
2022-09-01T21:53:45.165Z,12.00
2022-09-01T21:56:13.249Z,11.90
2022-09-01T21:58:41.374Z,11.90
2022-09-01T22:01:10.629Z,12.00
2022-09-01T22:03:43.054Z,12.00
2022-09-01T22:06:12.491Z,12.00
2022-09-01T22:08:40.580Z,12.00
2022-09-01T22:11:13.696Z,12.00
2022-09-01T22:13:41.782Z,12.00
2022-09-01T22:16:09.867Z,11.80
2022-09-01T22:18:38.032Z,11.80
2022-09-01T22:21:07.061Z,11.70
2022-09-01T22:23:35.222Z,11.70
2022-09-01T22:26:03.422Z,11.70
2022-09-01T22:28:33.324Z,11.70
2022-09-01T22:31:01.753Z,11.80
2022-09-01T22:33:29.886Z,11.80
2022-09-01T22:35:58.686Z,11.80
2022-09-01T22:38:27.340Z,11.80
2022-09-01T22:40:56.495Z,11.80
2022-09-01T22:43:25.214Z,11.80
2022-09-01T22:45:56.205Z,11.90
2022-09-01T22:48:25.607Z,11.90
2022-09-01T22:50:54.027Z,11.90
2022-09-01T22:53:22.926Z,11.90
2022-09-01T22:55:52.655Z,11.90
2022-09-01T22:58:21.318Z,11.90
2022-09-01T23:00:52.041Z,11.90
2022-09-01T23:03:21.664Z,11.90
2022-09-01T23:05:50.063Z,11.80
2022-09-01T23:08:18.353Z,11.80
2022-09-01T23:10:46.466Z,11.80
2022-09-01T23:13:15.275Z,11.80
2022-09-01T23:15:43.306Z,11.90
2022-09-01T23:18:11.566Z,11.80
2022-09-01T23:20:45.158Z,11.80
2022-09-01T23:23:22.276Z,11.80
2022-09-01T23:25:53.423Z,11.80
2022-09-01T23:28:21.884Z,11.70
2022-09-01T23:30:51.031Z,11.70
2022-09-01T23:33:19.905Z,11.60
2022-09-01T23:35:50.643Z,11.50
2022-09-01T23:38:19.719Z,11.50
2022-09-01T23:40:49.537Z,11.40
2022-09-01T23:43:18.954Z,11.40
2022-09-01T23:45:49.206Z,11.40
2022-09-01T23:48:17.679Z,11.50
2022-09-01T23:50:50.667Z,11.40
2022-09-01T23:53:21.631Z,11.40
2022-09-01T23:55:50.767Z,11.40
2022-09-01T23:58:21.682Z,11.30
